Time;durP1;ratioP1;P1;durP2;ratioP2;P2;SDS_P1;SDS_P2;PMS_P1;PMS_P2;Temp;Humidity;BMP_temperature;BMP_pressure;BME280_temperature;BME280_humidity;BME280_pressure;Samples;Min_cycle;Max_cycle;Signal;HPM_P1;HPM_P2
2023/11/20 00:00:35;;;;;;;26.97;15.63;;;;;;;;;;777756;179;918594;-64
2023/11/20 00:03:00;;;;;;;23.83;14.30;;;;;;;;;;784541;178;918234;-64
2023/11/20 00:05:26;;;;;;;25.30;13.80;;;;;;;;;;780599;176;918618;-66
2023/11/20 00:07:52;;;;;;;24.57;15.00;;;;;;;;;;779773;176;918488;-63
2023/11/20 00:10:18;;;;;;;24.33;12.57;;;;;;;;;;785289;178;917300;-64
2023/11/20 00:12:44;;;;;;;24.77;14.37;;;;;;;;;;776275;177;919556;-65
2023/11/20 00:15:11;;;;;;;28.60;14.90;;;;;;;;;;779115;178;921838;-65
2023/11/20 00:17:37;;;;;;;26.12;14.55;;;;;;;;;;776449;178;931529;-63
2023/11/20 00:20:02;;;;;;;23.23;13.67;;;;;;;;;;772555;181;918584;-65
2023/11/20 00:22:27;;;;;;;28.67;15.40;;;;;;;;;;779970;178;918052;-62
2023/11/20 00:24:53;;;;;;;25.73;14.40;;;;;;;;;;775447;179;917332;-62
2023/11/20 00:27:19;;;;;;;24.93;13.87;;;;;;;;;;785277;178;919569;-65
2023/11/20 00:29:45;;;;;;;32.57;15.37;;;;;;;;;;770530;179;918821;-64
2023/11/20 00:32:11;;;;;;;21.20;13.70;;;;;;;;;;777366;179;918639;-65
2023/11/20 00:34:37;;;;;;;24.03;14.23;;;;;;;;;;777861;179;919691;-65
2023/11/20 00:37:03;;;;;;;26.30;15.50;;;;;;;;;;775069;177;922034;-63
2023/11/20 00:39:29;;;;;;;25.97;13.60;;;;;;;;;;770466;179;918960;-65
2023/11/20 00:41:54;;;;;;;29.93;15.17;;;;;;;;;;783191;179;816880;-65
2023/11/20 00:44:20;;;;;;;23.77;13.00;;;;;;;;;;776715;179;917605;-64
2023/11/20 00:46:46;;;;;;;18.57;11.97;;;;;;;;;;778075;179;923071;-66
2023/11/20 00:49:12;;;;;;;24.60;14.13;;;;;;;;;;780527;178;918684;-62
2023/11/20 00:51:38;;;;;;;26.63;14.27;;;;;;;;;;785340;179;920431;-65
2023/11/20 00:54:04;;;;;;;24.90;14.40;;;;;;;;;;772076;177;920308;-65
2023/11/20 00:56:29;;;;;;;24.20;13.02;;;;;;;;;;775588;179;919445;-65
2023/11/20 00:58:55;;;;;;;24.37;14.73;;;;;;;;;;783611;179;919221;-64
2023/11/20 01:01:21;;;;;;;22.77;13.20;;;;;;;;;;777228;179;916638;-64
2023/11/20 01:03:47;;;;;;;25.20;14.07;;;;;;;;;;775261;179;921186;-62
2023/11/20 01:06:13;;;;;;;25.47;13.73;;;;;;;;;;785320;179;916406;-64
2023/11/20 01:08:39;;;;;;;26.43;15.50;;;;;;;;;;778872;179;1019599;-62
2023/11/20 01:11:09;;;;;;;26.70;15.80;;;;;;;;;;775699;179;917583;-62
2023/11/20 01:13:34;;;;;;;25.80;14.60;;;;;;;;;;770747;179;917699;-62
2023/11/20 01:16:00;;;;;;;23.67;12.67;;;;;;;;;;782558;179;917260;-64
2023/11/20 01:18:26;;;;;;;22.53;13.40;;;;;;;;;;782728;178;895623;-62
2023/11/20 01:20:52;;;;;;;26.05;13.40;;;;;;;;;;770607;178;919440;-63
2023/11/20 01:23:17;;;;;;;23.00;13.97;;;;;;;;;;778795;179;920052;-62
2023/11/20 01:25:43;;;;;;;21.67;13.07;;;;;;;;;;780732;179;817659;-63
2023/11/20 01:28:09;;;;;;;24.70;14.03;;;;;;;;;;775982;178;919014;-62
2023/11/20 01:30:35;;;;;;;20.83;12.93;;;;;;;;;;781544;179;919249;-64
2023/11/20 01:33:01;;;;;;;24.47;13.73;;;;;;;;;;780185;178;922554;-65
2023/11/20 01:35:27;;;;;;;23.90;14.03;;;;;;;;;;780216;179;914647;-62
2023/11/20 01:37:53;;;;;;;25.20;12.20;;;;;;;;;;771772;179;818630;-62
2023/11/20 01:40:19;;;;;;;24.53;13.43;;;;;;;;;;774687;180;919056;-64
2023/11/20 01:42:44;;;;;;;21.93;13.07;;;;;;;;;;779127;179;920190;-62
2023/11/20 01:45:10;;;;;;;20.97;12.70;;;;;;;;;;776812;178;917685;-63
2023/11/20 01:47:36;;;;;;;20.97;13.60;;;;;;;;;;780159;178;778067;-62
2023/11/20 01:50:02;;;;;;;21.87;14.07;;;;;;;;;;775016;179;919432;-64
2023/11/20 01:52:28;;;;;;;23.73;12.13;;;;;;;;;;779001;177;915483;-61
2023/11/20 01:54:53;;;;;;;19.07;12.90;;;;;;;;;;780642;179;821591;-65
2023/11/20 01:57:19;;;;;;;19.03;12.03;;;;;;;;;;776891;179;916201;-62
2023/11/20 01:59:45;;;;;;;21.30;11.20;;;;;;;;;;774354;178;916011;-64
2023/11/20 02:02:11;;;;;;;22.70;10.50;;;;;;;;;;783804;179;917428;-62
2023/11/20 02:04:37;;;;;;;20.00;10.60;;;;;;;;;;772156;179;918361;-64
2023/11/20 02:07:04;;;;;;;19.60;12.20;;;;;;;;;;777340;177;919179;-65
2023/11/20 02:09:28;;;;;;;19.50;10.33;;;;;;;;;;774475;179;916950;-64
2023/11/20 02:11:54;;;;;;;17.17;10.67;;;;;;;;;;783024;179;939605;-67
2023/11/20 02:14:20;;;;;;;18.80;9.93;;;;;;;;;;775358;177;863488;-63
2023/11/20 02:16:46;;;;;;;20.90;11.63;;;;;;;;;;777214;179;919616;-63
2023/11/20 02:19:12;;;;;;;16.20;10.33;;;;;;;;;;780642;179;919279;-63
2023/11/20 02:21:38;;;;;;;19.07;10.77;;;;;;;;;;779480;179;837564;-65
2023/11/20 02:24:04;;;;;;;21.90;12.53;;;;;;;;;;771747;179;918735;-64
2023/11/20 02:26:47;;;;;;;21.40;12.50;;;;;;;;;;782359;179;920526;-63
2023/11/20 02:29:29;;;;;;;23.70;11.50;;;;;;;;;;764517;179;923857;-65
2023/11/20 02:31:55;;;;;;;26.10;12.00;;;;;;;;;;774681;178;917777;-65
2023/11/20 02:34:21;;;;;;;23.40;13.53;;;;;;;;;;777004;178;918865;-65
2023/11/20 02:36:46;;;;;;;19.47;11.97;;;;;;;;;;774584;178;918866;-62
2023/11/20 02:39:12;;;;;;;18.40;11.90;;;;;;;;;;776573;178;922817;-65
2023/11/20 02:41:38;;;;;;;21.20;12.87;;;;;;;;;;775748;179;814353;-64
2023/11/20 02:44:04;;;;;;;22.97;11.80;;;;;;;;;;781418;175;919784;-65
2023/11/20 02:46:30;;;;;;;22.33;12.87;;;;;;;;;;779310;178;918327;-65
2023/11/20 02:48:56;;;;;;;17.30;11.40;;;;;;;;;;780906;179;816311;-67
2023/11/20 02:51:21;;;;;;;18.80;10.80;;;;;;;;;;777521;179;816144;-66
2023/11/20 02:53:47;;;;;;;24.63;14.00;;;;;;;;;;778897;176;920489;-66
2023/11/20 02:56:13;;;;;;;17.60;10.80;;;;;;;;;;781143;180;919083;-66
2023/11/20 02:58:39;;;;;;;20.97;11.30;;;;;;;;;;774046;178;942029;-66
2023/11/20 03:01:05;;;;;;;20.53;11.97;;;;;;;;;;773678;179;918332;-64
2023/11/20 03:03:31;;;;;;;15.90;10.60;;;;;;;;;;781824;177;918664;-63
2023/11/20 03:05:57;;;;;;;22.27;12.97;;;;;;;;;;778501;179;939366;-65
2023/11/20 03:08:22;;;;;;;17.97;11.33;;;;;;;;;;775752;179;920864;-64
2023/11/20 03:10:48;;;;;;;17.60;11.53;;;;;;;;;;779397;179;919827;-64
2023/11/20 03:13:14;;;;;;;18.47;11.00;;;;;;;;;;780977;178;920379;-63
2023/11/20 03:15:40;;;;;;;20.40;11.43;;;;;;;;;;779723;179;918994;-65
2023/11/20 03:18:06;;;;;;;23.23;11.33;;;;;;;;;;771844;179;821126;-64
2023/11/20 03:20:32;;;;;;;20.52;11.93;;;;;;;;;;779455;179;922911;-66
2023/11/20 03:22:57;;;;;;;15.63;10.70;;;;;;;;;;776047;180;918617;-63
2023/11/20 03:25:23;;;;;;;15.02;10.55;;;;;;;;;;777385;179;923062;-63
2023/11/20 03:27:49;;;;;;;19.90;10.40;;;;;;;;;;780897;179;816267;-65
2023/11/20 03:30:15;;;;;;;17.77;11.03;;;;;;;;;;769606;179;917808;-65
2023/11/20 03:32:41;;;;;;;20.57;11.57;;;;;;;;;;778329;178;919365;-63
2023/11/20 03:35:07;;;;;;;19.50;11.93;;;;;;;;;;774352;179;922558;-65
2023/11/20 03:37:34;;;;;;;16.43;10.17;;;;;;;;;;771791;180;917564;-63
2023/11/20 03:39:59;;;;;;;16.70;9.90;;;;;;;;;;776957;176;918325;-65
2023/11/20 03:42:25;;;;;;;15.90;11.02;;;;;;;;;;781467;175;919182;-63
2023/11/20 03:44:52;;;;;;;16.57;10.87;;;;;;;;;;779062;178;917050;-66
2023/11/20 03:47:17;;;;;;;19.63;9.73;;;;;;;;;;780026;178;915755;-65
2023/11/20 03:49:42;;;;;;;17.37;10.00;;;;;;;;;;782545;178;741028;-66
2023/11/20 03:52:08;;;;;;;19.85;10.00;;;;;;;;;;782703;179;922901;-66
2023/11/20 03:54:34;;;;;;;15.10;9.03;;;;;;;;;;776145;178;918690;-66
2023/11/20 03:57:00;;;;;;;18.00;10.35;;;;;;;;;;773845;178;918750;-66
2023/11/20 03:59:26;;;;;;;17.03;9.60;;;;;;;;;;784937;179;918591;-66
2023/11/20 04:01:52;;;;;;;19.92;10.30;;;;;;;;;;775435;179;918524;-64
2023/11/20 04:04:17;;;;;;;16.30;8.87;;;;;;;;;;778676;178;920284;-65
2023/11/20 04:06:43;;;;;;;21.57;9.47;;;;;;;;;;775391;179;827823;-64
2023/11/20 04:09:09;;;;;;;20.13;10.20;;;;;;;;;;780966;179;917676;-64
2023/11/20 04:11:35;;;;;;;17.40;9.93;;;;;;;;;;779940;179;817098;-64
2023/11/20 04:14:01;;;;;;;22.70;11.33;;;;;;;;;;776079;179;920371;-66
2023/11/20 04:16:27;;;;;;;17.10;11.30;;;;;;;;;;780941;179;918738;-64
2023/11/20 04:18:52;;;;;;;17.37;9.60;;;;;;;;;;775752;179;918945;-66
2023/11/20 04:21:18;;;;;;;16.98;10.20;;;;;;;;;;775287;179;920187;-65
2023/11/20 04:23:44;;;;;;;20.53;10.97;;;;;;;;;;775028;179;919124;-66
2023/11/20 04:26:10;;;;;;;17.17;10.10;;;;;;;;;;770964;179;920426;-65
2023/11/20 04:28:36;;;;;;;12.87;8.40;;;;;;;;;;774019;179;919641;-65
2023/11/20 04:31:03;;;;;;;13.75;9.27;;;;;;;;;;778502;179;918026;-65
2023/11/20 04:33:28;;;;;;;18.60;11.13;;;;;;;;;;775822;179;918717;-65
2023/11/20 04:35:54;;;;;;;15.53;9.30;;;;;;;;;;775865;179;917571;-66
2023/11/20 04:38:28;;;;;;;15.07;9.53;;;;;;;;;;772644;178;915219;-65
2023/11/20 04:40:48;;;;;;;18.83;10.30;;;;;;;;;;776933;179;931324;-64
2023/11/20 04:43:12;;;;;;;15.33;9.53;;;;;;;;;;773379;179;918519;-65
2023/11/20 04:45:38;;;;;;;14.77;9.47;;;;;;;;;;771885;179;1021368;-67
2023/11/20 04:48:04;;;;;;;17.17;10.40;;;;;;;;;;780812;179;920215;-66
2023/11/20 04:50:30;;;;;;;19.07;8.87;;;;;;;;;;777720;179;911212;-64
2023/11/20 04:52:55;;;;;;;17.02;8.70;;;;;;;;;;780651;178;816991;-64
2023/11/20 04:55:21;;;;;;;13.60;8.80;;;;;;;;;;785551;178;915486;-64
2023/11/20 04:57:47;;;;;;;16.63;9.00;;;;;;;;;;775771;178;920071;-64
2023/11/20 05:00:13;;;;;;;13.57;7.73;;;;;;;;;;774181;178;919587;-64
2023/11/20 05:02:39;;;;;;;17.97;9.10;;;;;;;;;;773777;178;908510;-66
2023/11/20 05:05:06;;;;;;;16.87;8.83;;;;;;;;;;783513;178;917871;-64
2023/11/20 05:07:32;;;;;;;16.17;8.80;;;;;;;;;;774240;179;922152;-66
2023/11/20 05:09:57;;;;;;;14.57;9.17;;;;;;;;;;767515;178;918661;-64
2023/11/20 05:12:23;;;;;;;13.20;7.90;;;;;;;;;;778981;178;918892;-66
2023/11/20 05:14:49;;;;;;;13.20;8.40;;;;;;;;;;776732;179;919333;-64
2023/11/20 05:17:18;;;;;;;17.73;8.77;;;;;;;;;;775247;179;922063;-65
2023/11/20 05:19:41;;;;;;;12.10;7.83;;;;;;;;;;782664;178;812042;-65
2023/11/20 05:22:07;;;;;;;13.50;9.97;;;;;;;;;;778376;179;919064;-65
2023/11/20 05:24:32;;;;;;;13.90;8.73;;;;;;;;;;775481;179;916658;-65
2023/11/20 05:26:58;;;;;;;12.40;7.40;;;;;;;;;;779007;179;919417;-65
2023/11/20 05:29:24;;;;;;;13.53;7.53;;;;;;;;;;776084;179;915312;-68
2023/11/20 05:31:50;;;;;;;15.87;9.10;;;;;;;;;;778047;179;917015;-66
2023/11/20 05:34:16;;;;;;;14.43;9.05;;;;;;;;;;774551;179;918806;-64
2023/11/20 05:36:42;;;;;;;14.90;7.90;;;;;;;;;;780036;179;918546;-66
2023/11/20 05:39:08;;;;;;;16.20;9.17;;;;;;;;;;772933;176;918974;-65
2023/11/20 05:41:33;;;;;;;18.77;10.03;;;;;;;;;;782025;179;629437;-67
2023/11/20 05:43:59;;;;;;;11.80;7.43;;;;;;;;;;784772;175;621537;-66
2023/11/20 05:46:25;;;;;;;21.60;8.67;;;;;;;;;;780862;179;624073;-66
2023/11/20 05:48:51;;;;;;;12.05;7.65;;;;;;;;;;774661;177;1027613;-64
2023/11/20 05:51:17;;;;;;;12.60;6.90;;;;;;;;;;778939;179;623712;-64
2023/11/20 05:53:43;;;;;;;11.13;7.77;;;;;;;;;;776460;179;631156;-65
2023/11/20 05:56:10;;;;;;;14.43;7.37;;;;;;;;;;784164;178;638987;-64
2023/11/20 05:58:35;;;;;;;9.50;6.67;;;;;;;;;;776730;176;815228;-66
2023/11/20 06:01:01;;;;;;;8.43;5.57;;;;;;;;;;783133;179;905394;-65
2023/11/20 06:03:27;;;;;;;15.47;7.33;;;;;;;;;;776463;177;817145;-63
2023/11/20 06:05:53;;;;;;;14.63;6.50;;;;;;;;;;778985;178;920611;-65
2023/11/20 06:08:19;;;;;;;10.03;6.50;;;;;;;;;;785140;178;816827;-64
2023/11/20 06:10:44;;;;;;;12.77;6.97;;;;;;;;;;779355;178;887257;-64
2023/11/20 06:13:10;;;;;;;11.60;6.13;;;;;;;;;;774511;178;912111;-63
2023/11/20 06:15:36;;;;;;;12.07;5.70;;;;;;;;;;777984;179;914614;-65
2023/11/20 06:18:02;;;;;;;13.93;7.80;;;;;;;;;;778864;178;921635;-65
2023/11/20 06:20:29;;;;;;;12.33;6.57;;;;;;;;;;778416;178;918802;-64
2023/11/20 06:22:54;;;;;;;10.88;6.20;;;;;;;;;;780816;179;923095;-63
2023/11/20 06:25:20;;;;;;;15.53;8.50;;;;;;;;;;773156;178;919308;-63
2023/11/20 06:27:45;;;;;;;11.63;7.47;;;;;;;;;;778968;175;928274;-63
2023/11/20 06:30:11;;;;;;;13.53;6.20;;;;;;;;;;778417;179;816097;-65
2023/11/20 06:32:37;;;;;;;11.90;6.87;;;;;;;;;;781321;179;888386;-65
2023/11/20 06:35:03;;;;;;;8.47;5.73;;;;;;;;;;776804;179;919086;-65
2023/11/20 06:37:29;;;;;;;16.60;7.10;;;;;;;;;;776685;178;919601;-63
2023/11/20 06:39:55;;;;;;;10.83;6.50;;;;;;;;;;779471;179;917373;-65
2023/11/20 06:42:21;;;;;;;9.93;6.17;;;;;;;;;;775860;177;918440;-64
2023/11/20 06:44:48;;;;;;;9.70;5.32;;;;;;;;;;777181;179;918221;-63
2023/11/20 06:47:13;;;;;;;10.53;5.83;;;;;;;;;;781549;177;949780;-63
2023/11/20 06:49:38;;;;;;;9.73;6.50;;;;;;;;;;776932;179;926787;-64
2023/11/20 06:52:05;;;;;;;7.53;5.20;;;;;;;;;;776588;179;819343;-63
2023/11/20 06:54:30;;;;;;;11.43;5.07;;;;;;;;;;775453;179;913548;-63
2023/11/20 06:56:56;;;;;;;10.80;6.20;;;;;;;;;;780469;179;920689;-63
2023/11/20 06:59:22;;;;;;;10.23;5.30;;;;;;;;;;777134;178;812253;-65
2023/11/20 07:01:48;;;;;;;9.60;5.10;;;;;;;;;;776306;178;1016854;-62
2023/11/20 07:04:14;;;;;;;12.17;5.10;;;;;;;;;;784337;175;629121;-66
2023/11/20 07:06:42;;;;;;;7.30;5.00;;;;;;;;;;779631;179;817722;-64
2023/11/20 07:09:12;;;;;;;9.55;5.37;;;;;;;;;;775460;179;906316;-64
2023/11/20 07:11:31;;;;;;;6.70;4.80;;;;;;;;;;780302;179;918388;-63
2023/11/20 07:13:57;;;;;;;8.83;4.60;;;;;;;;;;777549;178;919289;-66
2023/11/20 07:16:23;;;;;;;11.77;4.60;;;;;;;;;;777604;178;919779;-64
2023/11/20 07:18:49;;;;;;;7.57;4.80;;;;;;;;;;776730;178;919395;-62
2023/11/20 07:21:15;;;;;;;7.70;3.53;;;;;;;;;;776201;179;919254;-65
2023/11/20 07:23:41;;;;;;;9.30;4.87;;;;;;;;;;779101;178;920274;-64
2023/11/20 07:26:07;;;;;;;8.17;4.50;;;;;;;;;;779196;178;919354;-64
2023/11/20 07:28:33;;;;;;;7.70;4.17;;;;;;;;;;780008;178;917091;-63
2023/11/20 07:30:58;;;;;;;6.63;4.77;;;;;;;;;;773214;178;818943;-64
2023/11/20 07:33:24;;;;;;;5.90;3.50;;;;;;;;;;775842;179;897638;-64
2023/11/20 07:35:51;;;;;;;8.67;4.40;;;;;;;;;;783176;179;920539;-64
2023/11/20 07:38:16;;;;;;;9.67;4.47;;;;;;;;;;775412;179;918764;-65
2023/11/20 07:40:42;;;;;;;10.97;3.63;;;;;;;;;;779260;179;920522;-66
2023/11/20 07:43:08;;;;;;;8.13;4.17;;;;;;;;;;783293;178;919543;-66
2023/11/20 07:45:34;;;;;;;6.47;3.60;;;;;;;;;;773477;179;916764;-65
2023/11/20 07:48:00;;;;;;;6.03;4.10;;;;;;;;;;773734;179;923413;-65
2023/11/20 07:50:25;;;;;;;4.67;2.87;;;;;;;;;;776734;179;925657;-64
2023/11/20 07:52:51;;;;;;;6.77;3.07;;;;;;;;;;781787;179;919064;-64
2023/11/20 07:55:17;;;;;;;5.25;3.15;;;;;;;;;;778954;179;778517;-66
2023/11/20 07:57:43;;;;;;;8.77;3.50;;;;;;;;;;774168;177;916897;-65
2023/11/20 08:00:11;;;;;;;5.97;3.50;;;;;;;;;;781864;179;815954;-65
2023/11/20 08:02:36;;;;;;;6.87;3.27;;;;;;;;;;778185;179;916099;-65
2023/11/20 08:05:01;;;;;;;5.80;3.47;;;;;;;;;;776877;179;903278;-65
2023/11/20 08:07:27;;;;;;;7.03;4.13;;;;;;;;;;779651;179;918809;-64
2023/11/20 08:09:53;;;;;;;5.37;4.07;;;;;;;;;;776693;179;920149;-65
2023/11/20 08:12:19;;;;;;;6.20;3.30;;;;;;;;;;775982;179;915930;-64
2023/11/20 08:14:47;;;;;;;6.93;4.10;;;;;;;;;;772023;179;920636;-65
2023/11/20 08:17:11;;;;;;;5.30;2.70;;;;;;;;;;766555;180;914578;-64
2023/11/20 08:19:37;;;;;;;6.47;3.70;;;;;;;;;;772977;179;917996;-66
2023/11/20 08:22:04;;;;;;;12.80;3.20;;;;;;;;;;777941;179;919113;-63
2023/11/20 08:24:29;;;;;;;7.10;3.30;;;;;;;;;;780889;179;816535;-66
2023/11/20 08:26:54;;;;;;;11.53;3.27;;;;;;;;;;778585;178;918773;-64
2023/11/20 08:29:20;;;;;;;7.97;3.33;;;;;;;;;;782310;178;633561;-64
2023/11/20 08:31:47;;;;;;;6.17;3.17;;;;;;;;;;785292;178;622797;-64
2023/11/20 08:34:12;;;;;;;6.63;3.20;;;;;;;;;;781204;178;644230;-63
2023/11/20 08:36:38;;;;;;;8.57;3.37;;;;;;;;;;782093;178;627367;-66
2023/11/20 08:39:11;;;;;;;5.93;3.30;;;;;;;;;;786641;177;628907;-66
2023/11/20 08:41:30;;;;;;;5.87;4.23;;;;;;;;;;778112;178;619218;-63
2023/11/20 08:43:59;;;;;;;4.03;2.53;;;;;;;;;;774364;178;920362;-66
2023/11/20 08:46:22;;;;;;;11.15;3.60;;;;;;;;;;780993;179;830798;-65
2023/11/20 08:48:48;;;;;;;8.60;3.00;;;;;;;;;;781682;179;819699;-65
2023/11/20 08:51:14;;;;;;;7.10;3.30;;;;;;;;;;780020;179;919101;-63
2023/11/20 08:53:39;;;;;;;5.60;3.17;;;;;;;;;;774214;179;917722;-65
2023/11/20 08:56:05;;;;;;;9.60;4.03;;;;;;;;;;783628;179;889650;-66
2023/11/20 08:58:31;;;;;;;5.90;3.63;;;;;;;;;;775841;179;919180;-65
2023/11/20 09:00:59;;;;;;;8.13;3.37;;;;;;;;;;774390;179;921944;-63
2023/11/20 09:03:23;;;;;;;4.37;2.43;;;;;;;;;;782810;179;918437;-63
2023/11/20 09:05:49;;;;;;;6.77;2.40;;;;;;;;;;771049;179;919159;-64
2023/11/20 09:08:15;;;;;;;3.53;2.12;;;;;;;;;;775124;179;919289;-64
2023/11/20 09:10:40;;;;;;;7.20;3.60;;;;;;;;;;773590;179;921160;-65
2023/11/20 09:13:06;;;;;;;9.50;3.53;;;;;;;;;;769455;180;818159;-65
2023/11/20 09:15:32;;;;;;;4.80;2.67;;;;;;;;;;775443;178;919150;-63
2023/11/20 09:17:58;;;;;;;8.32;3.40;;;;;;;;;;772330;179;919602;-63
2023/11/20 09:20:24;;;;;;;12.23;4.00;;;;;;;;;;774105;179;909305;-63
2023/11/20 09:22:50;;;;;;;7.47;3.33;;;;;;;;;;777748;179;919435;-64
2023/11/20 09:25:16;;;;;;;8.00;3.20;;;;;;;;;;774061;180;816276;-63
2023/11/20 09:27:42;;;;;;;8.57;2.80;;;;;;;;;;776623;179;908669;-63
2023/11/20 09:30:10;;;;;;;5.23;2.73;;;;;;;;;;775522;179;858886;-64
2023/11/20 09:32:34;;;;;;;5.78;3.28;;;;;;;;;;776285;179;920673;-63
2023/11/20 09:35:00;;;;;;;8.27;3.20;;;;;;;;;;777320;179;921583;-64
2023/11/20 09:37:27;;;;;;;7.97;2.80;;;;;;;;;;773951;179;918328;-65
2023/11/20 09:39:52;;;;;;;4.90;3.10;;;;;;;;;;775383;178;920649;-64
2023/11/20 09:42:18;;;;;;;15.90;5.00;;;;;;;;;;781366;178;920826;-64
2023/11/20 09:44:46;;;;;;;8.50;4.37;;;;;;;;;;786048;178;912983;-63
2023/11/20 09:47:10;;;;;;;6.37;2.77;;;;;;;;;;777099;178;817015;-63
2023/11/20 09:49:36;;;;;;;5.90;3.60;;;;;;;;;;778640;178;926080;-64
2023/11/20 09:52:02;;;;;;;12.13;3.33;;;;;;;;;;780745;178;918031;-63
2023/11/20 09:54:30;;;;;;;7.80;5.17;;;;;;;;;;776286;178;919837;-62
2023/11/20 09:56:54;;;;;;;6.40;3.73;;;;;;;;;;779804;178;918630;-64
2023/11/20 09:59:19;;;;;;;10.10;3.17;;;;;;;;;;783181;179;815398;-63
2023/11/20 10:01:46;;;;;;;7.93;3.10;;;;;;;;;;778972;179;919994;-62
2023/11/20 10:04:11;;;;;;;6.70;3.00;;;;;;;;;;777429;179;919590;-63
2023/11/20 10:06:37;;;;;;;12.80;3.40;;;;;;;;;;772012;178;917949;-62
2023/11/20 10:09:03;;;;;;;5.63;3.60;;;;;;;;;;781614;179;817899;-62
2023/11/20 10:11:29;;;;;;;6.13;3.03;;;;;;;;;;774159;179;917505;-64
2023/11/20 10:13:55;;;;;;;7.77;3.33;;;;;;;;;;776003;179;919235;-62
2023/11/20 10:16:22;;;;;;;14.43;3.43;;;;;;;;;;781576;179;918192;-63
2023/11/20 10:18:46;;;;;;;6.17;2.67;;;;;;;;;;777964;179;920565;-63
2023/11/20 10:21:12;;;;;;;6.03;3.20;;;;;;;;;;772150;180;918855;-62
2023/11/20 10:23:39;;;;;;;6.87;3.00;;;;;;;;;;776852;177;919149;-63
2023/11/20 10:26:06;;;;;;;12.43;3.90;;;;;;;;;;777462;179;917873;-63
2023/11/20 10:28:30;;;;;;;7.03;4.03;;;;;;;;;;776206;178;918972;-64
2023/11/20 10:30:56;;;;;;;5.27;2.97;;;;;;;;;;776067;179;916300;-63
2023/11/20 10:33:22;;;;;;;7.00;3.30;;;;;;;;;;771201;180;917622;-63
2023/11/20 10:35:48;;;;;;;13.07;3.63;;;;;;;;;;775193;178;918861;-63
2023/11/20 10:38:13;;;;;;;7.82;3.12;;;;;;;;;;776173;178;1105837;-64
2023/11/20 10:40:41;;;;;;;6.63;3.43;;;;;;;;;;775736;179;915144;-63
2023/11/20 10:43:06;;;;;;;10.30;2.90;;;;;;;;;;775418;179;924272;-63
2023/11/20 10:45:34;;;;;;;5.80;2.80;;;;;;;;;;774521;179;895991;-62
2023/11/20 10:48:00;;;;;;;4.60;2.37;;;;;;;;;;784870;178;633894;-63
2023/11/20 10:50:25;;;;;;;5.77;2.90;;;;;;;;;;776556;178;922310;-63
2023/11/20 10:52:51;;;;;;;7.30;3.78;;;;;;;;;;778324;178;919592;-64
2023/11/20 10:55:17;;;;;;;7.37;2.60;;;;;;;;;;778641;178;914862;-64
2023/11/20 10:57:43;;;;;;;7.23;2.83;;;;;;;;;;772289;180;922013;-64
2023/11/20 11:00:10;;;;;;;11.63;3.47;;;;;;;;;;779190;178;924605;-63
2023/11/20 11:02:36;;;;;;;8.27;2.50;;;;;;;;;;776607;178;915749;-64
2023/11/20 11:05:06;;;;;;;10.52;2.90;;;;;;;;;;780081;178;918237;-64
2023/11/20 11:07:28;;;;;;;9.10;2.47;;;;;;;;;;775099;179;922712;-63
2023/11/20 11:09:54;;;;;;;6.50;3.03;;;;;;;;;;780549;179;620242;-65
2023/11/20 11:12:19;;;;;;;7.43;2.63;;;;;;;;;;782772;178;617293;-64
2023/11/20 11:14:45;;;;;;;5.70;2.23;;;;;;;;;;778388;179;621437;-64
2023/11/20 11:17:11;;;;;;;3.80;2.40;;;;;;;;;;776448;179;618620;-63
2023/11/20 11:19:37;;;;;;;8.50;2.93;;;;;;;;;;787067;179;625344;-65
2023/11/20 11:22:03;;;;;;;7.43;3.00;;;;;;;;;;770362;176;627937;-63
2023/11/20 11:24:31;;;;;;;8.47;2.90;;;;;;;;;;780517;178;904418;-64
2023/11/20 11:26:56;;;;;;;12.43;3.00;;;;;;;;;;776367;180;924209;-64
2023/11/20 11:29:22;;;;;;;8.97;2.50;;;;;;;;;;780163;179;919743;-64
2023/11/20 11:31:54;;;;;;;7.57;3.03;;;;;;;;;;777218;179;633704;-63
2023/11/20 11:34:20;;;;;;;7.00;3.00;;;;;;;;;;782340;179;630417;-63
2023/11/20 11:36:48;;;;;;;10.07;2.43;;;;;;;;;;785540;179;642195;-63
2023/11/20 11:39:16;;;;;;;7.07;3.23;;;;;;;;;;773937;180;916496;-63
2023/11/20 11:41:44;;;;;;;10.47;3.40;;;;;;;;;;775985;178;919829;-64
2023/11/20 11:44:11;;;;;;;5.68;2.15;;;;;;;;;;774989;179;919234;-64
2023/11/20 11:46:37;;;;;;;7.93;3.00;;;;;;;;;;777209;179;932924;-64
2023/11/20 11:49:09;;;;;;;5.03;2.50;;;;;;;;;;778039;179;917970;-63
2023/11/20 11:51:34;;;;;;;10.37;3.40;;;;;;;;;;778037;179;919835;-63
2023/11/20 11:54:06;;;;;;;10.93;3.03;;;;;;;;;;772954;179;821626;-63
2023/11/20 11:56:32;;;;;;;6.97;3.10;;;;;;;;;;775346;180;714663;-63
2023/11/20 11:58:58;;;;;;;6.70;2.80;;;;;;;;;;778130;179;914761;-65
2023/11/20 12:01:23;;;;;;;7.90;2.63;;;;;;;;;;776581;178;919656;-64
2023/11/20 12:03:51;;;;;;;5.77;2.63;;;;;;;;;;787469;178;915618;-64
2023/11/20 12:06:15;;;;;;;5.10;2.53;;;;;;;;;;777494;178;894457;-66
2023/11/20 12:08:41;;;;;;;7.23;2.87;;;;;;;;;;775813;178;818469;-64
2023/11/20 12:11:07;;;;;;;10.93;2.80;;;;;;;;;;777313;178;918273;-65
2023/11/20 12:13:33;;;;;;;12.47;3.10;;;;;;;;;;777078;178;919140;-65
2023/11/20 12:16:03;;;;;;;6.23;2.70;;;;;;;;;;773450;178;919095;-64
2023/11/20 12:18:28;;;;;;;8.80;3.17;;;;;;;;;;777744;178;918850;-65
2023/11/20 12:21:04;;;;;;;9.33;2.30;;;;;;;;;;785104;179;816517;-64
2023/11/20 12:23:30;;;;;;;6.67;2.73;;;;;;;;;;778460;180;1124089;-65
2023/11/20 12:25:56;;;;;;;11.40;3.27;;;;;;;;;;781896;178;818083;-65
2023/11/20 12:28:22;;;;;;;8.50;3.25;;;;;;;;;;778568;179;940616;-65
2023/11/20 12:30:48;;;;;;;7.67;3.07;;;;;;;;;;781440;179;917753;-66
2023/11/20 12:33:14;;;;;;;9.93;3.00;;;;;;;;;;769392;177;918773;-66
2023/11/20 12:35:39;;;;;;;5.90;3.13;;;;;;;;;;769999;178;907504;-65
2023/11/20 12:38:05;;;;;;;9.57;2.47;;;;;;;;;;781127;179;927097;-65
2023/11/20 12:40:31;;;;;;;6.37;2.40;;;;;;;;;;768338;179;915880;-66
2023/11/20 12:42:57;;;;;;;7.17;3.50;;;;;;;;;;766526;180;922946;-65
2023/11/20 12:45:23;;;;;;;4.60;2.30;;;;;;;;;;775649;178;917990;-64
2023/11/20 12:47:49;;;;;;;6.47;2.30;;;;;;;;;;781978;177;863353;-65
2023/11/20 12:50:14;;;;;;;8.53;2.80;;;;;;;;;;775969;179;910602;-62
2023/11/20 12:52:40;;;;;;;7.20;3.07;;;;;;;;;;775159;179;920773;-65
2023/11/20 12:55:07;;;;;;;6.65;2.95;;;;;;;;;;777215;179;923400;-64
2023/11/20 12:57:34;;;;;;;9.30;2.33;;;;;;;;;;775907;179;913871;-66
2023/11/20 13:00:00;;;;;;;6.53;2.15;;;;;;;;;;782112;179;817811;-65
2023/11/20 13:02:28;;;;;;;4.10;1.80;;;;;;;;;;777965;179;914788;-65
2023/11/20 13:04:52;;;;;;;7.27;3.00;;;;;;;;;;776059;179;915389;-64
2023/11/20 13:07:21;;;;;;;7.63;3.10;;;;;;;;;;771991;179;826765;-63
2023/11/20 13:09:47;;;;;;;5.43;2.63;;;;;;;;;;774308;179;917732;-65
2023/11/20 13:12:13;;;;;;;7.70;2.70;;;;;;;;;;783486;176;892411;-65
2023/11/20 13:14:44;;;;;;;8.17;2.80;;;;;;;;;;781183;178;818918;-64
2023/11/20 13:17:10;;;;;;;7.17;4.10;;;;;;;;;;778350;178;919079;-63
2023/11/20 13:19:36;;;;;;;7.90;2.50;;;;;;;;;;777928;178;940090;-63
2023/11/20 13:22:02;;;;;;;5.57;3.10;;;;;;;;;;774837;179;918341;-64
2023/11/20 13:24:28;;;;;;;10.40;2.90;;;;;;;;;;773313;178;919578;-65
2023/11/20 13:26:54;;;;;;;6.10;3.13;;;;;;;;;;776307;178;918170;-63
2023/11/20 13:29:19;;;;;;;11.67;3.00;;;;;;;;;;782354;178;917876;-66
2023/11/20 13:31:45;;;;;;;7.73;3.80;;;;;;;;;;779298;179;930327;-64
2023/11/20 13:34:13;;;;;;;7.40;2.63;;;;;;;;;;776003;179;916157;-67
2023/11/20 13:36:37;;;;;;;5.53;2.87;;;;;;;;;;782271;179;918251;-64
2023/11/20 13:39:07;;;;;;;10.80;2.90;;;;;;;;;;771622;176;922896;-64
2023/11/20 13:41:29;;;;;;;7.40;3.37;;;;;;;;;;776980;179;818632;-63
2023/11/20 13:43:55;;;;;;;7.23;2.70;;;;;;;;;;777740;179;740192;-65
2023/11/20 13:46:21;;;;;;;5.73;2.93;;;;;;;;;;776800;179;919829;-64
2023/11/20 13:48:46;;;;;;;8.50;3.30;;;;;;;;;;775967;179;857757;-65
2023/11/20 13:51:12;;;;;;;4.70;2.73;;;;;;;;;;775983;179;847055;-64
2023/11/20 13:53:38;;;;;;;9.20;3.17;;;;;;;;;;781787;179;920082;-65
2023/11/20 13:56:04;;;;;;;9.43;3.23;;;;;;;;;;779385;179;920290;-64
2023/11/20 13:58:30;;;;;;;5.70;2.60;;;;;;;;;;776148;177;920388;-64
2023/11/20 14:00:56;;;;;;;8.27;2.50;;;;;;;;;;782090;179;817594;-64
2023/11/20 14:03:22;;;;;;;7.20;3.10;;;;;;;;;;774722;179;921792;-64
2023/11/20 14:05:48;;;;;;;7.40;3.20;;;;;;;;;;774092;179;918799;-63
2023/11/20 14:08:13;;;;;;;5.50;3.60;;;;;;;;;;780834;179;817020;-64
2023/11/20 14:10:39;;;;;;;9.77;3.20;;;;;;;;;;776602;179;910072;-63